createdAt,value
2022-10-18T00:01:05.378Z,11.27
2022-10-18T00:03:33.602Z,11.15
2022-10-18T00:06:01.938Z,10.82
2022-10-18T00:08:30.033Z,11.38
2022-10-18T00:10:57.816Z,8.95
2022-10-18T00:13:27.105Z,11.05
2022-10-18T00:16:00.844Z,13.77
2022-10-18T00:18:30.503Z,10.88
2022-10-18T00:21:00.148Z,10.38
2022-10-18T00:23:29.269Z,10.48
2022-10-18T00:26:02.035Z,8.95
2022-10-18T00:28:30.145Z,9.43
2022-10-18T00:30:58.000Z,10.82
2022-10-18T00:33:25.885Z,10.23
2022-10-18T00:35:55.217Z,11.45
2022-10-18T00:38:23.137Z,11.30
2022-10-18T00:40:50.849Z,10.75
2022-10-18T00:43:19.062Z,10.07
2022-10-18T00:45:46.770Z,11.18
2022-10-18T00:48:17.874Z,10.93
2022-10-18T00:50:49.656Z,10.18
2022-10-18T00:53:21.388Z,12.13
2022-10-18T00:55:50.047Z,9.43
2022-10-18T00:58:20.150Z,9.40
2022-10-18T01:00:48.545Z,9.95
2022-10-18T01:03:16.252Z,11.48
2022-10-18T01:05:46.770Z,12.98
2022-10-18T01:08:39.075Z,11.98
2022-10-18T01:11:18.237Z,8.73
2022-10-18T01:13:57.243Z,9.68
2022-10-18T01:16:30.964Z,10.20
2022-10-18T01:19:03.515Z,10.95
2022-10-18T01:21:45.357Z,10.73
2022-10-18T01:24:45.895Z,11.85
2022-10-18T01:27:31.099Z,13.50
2022-10-18T01:30:29.777Z,10.27
2022-10-18T01:33:04.520Z,11.60
2022-10-18T01:35:38.264Z,9.70
2022-10-18T01:38:09.854Z,9.50
2022-10-18T01:40:41.570Z,12.40
2022-10-18T01:43:11.058Z,11.73
2022-10-18T01:45:38.954Z,10.07
2022-10-18T01:48:10.934Z,8.15
2022-10-18T01:50:38.974Z,10.60
2022-10-18T01:53:06.800Z,9.38
2022-10-18T01:55:42.438Z,9.05
2022-10-18T01:58:21.127Z,10.00
2022-10-18T02:00:56.146Z,9.52
2022-10-18T02:03:27.944Z,10.10
2022-10-18T02:06:06.163Z,9.65
2022-10-18T02:08:38.975Z,10.80
2022-10-18T02:11:09.813Z,12.75
2022-10-18T02:13:41.634Z,9.45
2022-10-18T02:16:22.083Z,9.90
2022-10-18T02:18:57.255Z,16.13
2022-10-18T02:21:27.796Z,8.85
2022-10-18T02:23:58.998Z,12.27
2022-10-18T02:26:27.164Z,11.85
2022-10-18T02:28:55.365Z,9.48
2022-10-18T02:31:28.913Z,9.38
2022-10-18T02:34:01.668Z,11.13
2022-10-18T02:36:34.213Z,13.50
2022-10-18T02:39:06.308Z,10.77
2022-10-18T02:41:37.191Z,10.00
2022-10-18T02:44:05.403Z,10.50
2022-10-18T02:46:34.868Z,13.15
2022-10-18T02:49:04.314Z,15.70
2022-10-18T02:51:32.414Z,9.82
2022-10-18T02:54:00.262Z,13.80
2022-10-18T02:56:28.304Z,30.48
2022-10-18T02:58:56.074Z,41.28
2022-10-18T03:01:24.065Z,41.53
2022-10-18T03:03:52.014Z,27.30
2022-10-18T03:06:21.497Z,33.40
2022-10-18T03:08:49.407Z,27.08
2022-10-18T03:11:17.287Z,25.27
2022-10-18T03:13:51.236Z,27.73
2022-10-18T03:16:19.586Z,35.85
2022-10-18T03:18:47.503Z,23.90
2022-10-18T03:21:15.538Z,23.63
2022-10-18T03:23:47.869Z,19.40
2022-10-18T03:26:15.920Z,14.52
2022-10-18T03:28:43.734Z,21.67
2022-10-18T03:31:11.601Z,21.08
2022-10-18T03:33:42.279Z,21.10
2022-10-18T03:36:10.214Z,12.18
2022-10-18T03:38:38.216Z,15.20
2022-10-18T03:41:07.726Z,20.40
2022-10-18T03:43:35.498Z,15.57
2022-10-18T03:46:03.736Z,22.10
2022-10-18T03:48:34.406Z,18.95
2022-10-18T03:51:02.469Z,13.50
2022-10-18T03:53:30.233Z,15.98
2022-10-18T03:55:58.295Z,12.95
2022-10-18T03:58:27.573Z,12.10
2022-10-18T04:00:56.414Z,14.02
2022-10-18T04:03:24.648Z,17.57
2022-10-18T04:05:52.564Z,13.52
2022-10-18T04:08:20.469Z,14.65
2022-10-18T04:10:48.563Z,11.10
2022-10-18T04:13:16.329Z,18.65
2022-10-18T04:15:45.816Z,12.60
2022-10-18T04:18:13.680Z,11.05
2022-10-18T04:20:41.494Z,14.88
2022-10-18T04:23:09.263Z,11.90
2022-10-18T04:25:37.446Z,16.08
2022-10-18T04:28:07.489Z,13.88
2022-10-18T04:30:35.383Z,11.98
2022-10-18T04:33:04.887Z,14.07
2022-10-18T04:38:00.074Z,14.07
2022-10-18T04:40:28.043Z,15.88
2022-10-18T04:42:56.753Z,15.80
2022-10-18T04:45:24.635Z,14.63
2022-10-18T04:47:52.623Z,15.50
2022-10-18T04:50:22.400Z,14.63
2022-10-18T04:52:52.957Z,16.02
2022-10-18T04:55:34.124Z,12.13
2022-10-18T04:59:03.463Z,13.98
2022-10-18T05:02:14.314Z,15.63
2022-10-18T05:06:00.950Z,14.80
2022-10-18T05:08:59.318Z,15.10
2022-10-18T05:12:15.794Z,19.55
2022-10-18T05:18:17.964Z,20.70
2022-10-18T05:20:53.289Z,20.70
2022-10-18T05:26:55.599Z,22.23
2022-10-18T05:29:23.729Z,25.73
2022-10-18T05:32:14.848Z,17.95
2022-10-18T05:34:54.870Z,23.02
2022-10-18T05:37:35.890Z,22.88
2022-10-18T05:40:22.315Z,20.60
2022-10-18T05:42:55.251Z,24.17
2022-10-18T05:49:21.985Z,24.92
2022-10-18T05:51:49.946Z,26.77
2022-10-18T05:54:19.221Z,27.00
2022-10-18T05:56:49.364Z,27.13
2022-10-18T05:59:17.554Z,25.08
2022-10-18T06:01:45.359Z,24.95
2022-10-18T06:04:13.372Z,26.33
2022-10-18T06:06:41.187Z,26.08
2022-10-18T06:09:09.667Z,21.58
2022-10-18T06:11:39.153Z,24.85
2022-10-18T06:14:08.591Z,26.08
2022-10-18T06:16:39.792Z,24.38
2022-10-18T06:19:08.314Z,24.50
2022-10-18T06:21:36.363Z,28.05
2022-10-18T06:24:06.143Z,23.45
2022-10-18T06:26:34.620Z,25.30
2022-10-18T06:29:06.162Z,24.43
2022-10-18T06:31:34.229Z,22.40
2022-10-18T06:34:03.089Z,20.83
2022-10-18T06:36:31.345Z,23.58
2022-10-18T06:39:01.470Z,25.27
2022-10-18T06:41:29.681Z,23.35
2022-10-18T06:44:05.160Z,145.18
2022-10-18T06:46:33.079Z,51.55
2022-10-18T06:49:01.502Z,36.05
2022-10-18T06:51:29.673Z,26.00
2022-10-18T06:54:16.873Z,33.20
2022-10-18T06:56:45.695Z,36.70
2022-10-18T06:59:15.118Z,24.08
2022-10-18T07:01:43.049Z,27.55
2022-10-18T07:04:10.937Z,33.63
2022-10-18T07:06:38.900Z,28.23
2022-10-18T07:09:06.755Z,17.88
2022-10-18T07:11:34.757Z,14.27
2022-10-18T07:14:03.448Z,17.77
2022-10-18T07:16:34.365Z,13.15
2022-10-18T07:19:02.090Z,17.58
2022-10-18T07:21:29.880Z,17.73
2022-10-18T07:23:58.197Z,21.40
2022-10-18T07:26:27.713Z,21.75
2022-10-18T07:28:58.157Z,13.38
2022-10-18T07:31:26.357Z,19.38
2022-10-18T07:33:55.934Z,15.65
2022-10-18T07:38:52.370Z,17.55
2022-10-18T07:41:23.201Z,15.68
2022-10-18T07:43:52.510Z,18.20
2022-10-18T07:46:21.118Z,15.25
2022-10-18T07:48:51.491Z,18.83
2022-10-18T07:51:21.338Z,16.25
2022-10-18T07:56:19.038Z,17.02
2022-10-18T07:58:49.218Z,16.30
2022-10-18T08:01:17.596Z,20.10
2022-10-18T08:03:45.664Z,16.52
2022-10-18T08:06:16.387Z,16.55
2022-10-18T08:08:46.936Z,15.00
2022-10-18T08:11:16.373Z,17.70
2022-10-18T08:13:44.379Z,16.17
2022-10-18T08:16:14.499Z,16.23
2022-10-18T08:18:42.489Z,16.95
2022-10-18T08:21:13.780Z,17.55
2022-10-18T08:23:42.857Z,15.05
2022-10-18T08:26:14.787Z,14.17
2022-10-18T08:28:49.263Z,14.95
2022-10-18T08:31:22.088Z,15.13
2022-10-18T08:33:49.982Z,15.00
2022-10-18T08:36:18.327Z,10.30
2022-10-18T08:38:46.309Z,12.15
2022-10-18T08:41:34.212Z,14.02
2022-10-18T08:44:10.574Z,14.10
2022-10-18T08:46:42.818Z,12.95
2022-10-18T08:49:19.051Z,11.95
2022-10-18T08:51:49.649Z,17.85
2022-10-18T08:54:24.626Z,13.65
2022-10-18T08:56:59.150Z,12.05
2022-10-18T08:59:32.964Z,12.77
2022-10-18T09:02:13.334Z,13.55
2022-10-18T09:04:55.522Z,15.07
2022-10-18T09:08:03.171Z,10.90
2022-10-18T09:10:43.903Z,15.70
2022-10-18T09:13:40.328Z,19.67
2022-10-18T09:17:15.839Z,18.25
2022-10-18T09:20:27.162Z,16.98
2022-10-18T09:23:43.532Z,15.55
2022-10-18T09:26:22.846Z,17.73
2022-10-18T09:32:58.768Z,18.85
2022-10-18T09:35:43.762Z,13.27
2022-10-18T09:38:33.054Z,13.88
2022-10-18T09:41:12.881Z,15.93
2022-10-18T09:43:57.348Z,13.93
2022-10-18T09:47:00.386Z,18.77
2022-10-18T09:49:51.785Z,18.40
2022-10-18T09:52:32.356Z,17.98
2022-10-18T09:55:31.234Z,16.55
2022-10-18T10:05:53.373Z,14.98
2022-10-18T10:08:47.209Z,17.35
2022-10-18T10:14:30.978Z,14.93
2022-10-18T10:17:07.590Z,15.60
2022-10-18T10:23:05.703Z,15.38
2022-10-18T10:33:03.434Z,17.98
2022-10-18T10:36:22.976Z,19.48
2022-10-18T10:39:24.880Z,19.48
2022-10-18T10:42:07.992Z,21.15
2022-10-18T10:45:20.351Z,23.90
2022-10-18T10:47:55.460Z,31.70
2022-10-18T10:50:49.920Z,43.83
2022-10-18T10:53:35.410Z,32.08
2022-10-18T10:56:36.337Z,27.13
2022-10-18T10:59:31.104Z,33.92
2022-10-18T11:02:29.941Z,29.25
2022-10-18T11:05:24.038Z,30.27
2022-10-18T11:08:30.653Z,24.90
2022-10-18T11:11:38.307Z,30.35
2022-10-18T11:14:26.877Z,26.10
2022-10-18T11:20:25.107Z,30.42
2022-10-18T11:23:11.829Z,27.65
2022-10-18T11:26:20.488Z,30.02
2022-10-18T11:29:21.679Z,25.80
2022-10-18T11:32:38.422Z,26.08
2022-10-18T11:35:42.154Z,30.58
2022-10-18T11:38:42.569Z,24.88
2022-10-18T11:41:38.047Z,28.27
2022-10-18T11:44:23.716Z,35.03
2022-10-18T11:47:15.506Z,43.03
2022-10-18T11:50:25.418Z,31.73
2022-10-18T11:53:22.934Z,30.98
2022-10-18T11:56:09.083Z,25.83
2022-10-18T11:59:28.644Z,29.40
2022-10-18T12:05:30.149Z,28.23
2022-10-18T12:08:48.078Z,27.88
2022-10-18T12:12:06.529Z,28.40
2022-10-18T12:14:53.058Z,33.28
2022-10-18T12:17:51.379Z,26.40
2022-10-18T12:20:28.060Z,27.88
2022-10-18T12:23:23.394Z,22.90
2022-10-18T12:26:27.811Z,25.38
2022-10-18T12:29:07.859Z,22.40
2022-10-18T12:31:46.381Z,20.23
2022-10-18T12:34:36.678Z,24.80
2022-10-18T12:37:44.845Z,20.73
2022-10-18T12:40:57.429Z,19.30
2022-10-18T12:44:12.250Z,21.70
2022-10-18T12:46:49.462Z,21.35
2022-10-18T12:53:01.228Z,19.92
2022-10-18T12:58:44.370Z,16.10
2022-10-18T13:01:23.842Z,18.05
2022-10-18T13:03:56.878Z,18.55
2022-10-18T13:10:51.640Z,23.83
2022-10-18T13:14:00.287Z,23.30
2022-10-18T13:16:43.322Z,19.87
2022-10-18T13:19:22.062Z,18.70
2022-10-18T13:22:31.535Z,21.70
2022-10-18T13:25:21.444Z,40.75
2022-10-18T13:28:02.994Z,35.38
2022-10-18T13:31:00.932Z,29.75
2022-10-18T13:33:33.872Z,28.30
2022-10-18T13:36:03.732Z,19.98
2022-10-18T13:38:45.816Z,20.55
2022-10-18T13:41:16.941Z,22.48
2022-10-18T13:44:47.075Z,18.10
2022-10-18T13:47:55.069Z,15.18
2022-10-18T13:50:42.480Z,18.52
2022-10-18T13:57:15.890Z,18.58
2022-10-18T14:00:30.345Z,14.68
2022-10-18T14:03:58.580Z,15.38
2022-10-18T14:06:47.125Z,14.63
2022-10-18T14:09:48.637Z,14.30
2022-10-18T14:12:44.050Z,12.48
2022-10-18T14:15:18.392Z,12.13
2022-10-18T14:17:57.340Z,13.07
2022-10-18T14:21:12.915Z,12.90
2022-10-18T14:23:43.963Z,14.38
2022-10-18T14:29:16.400Z,15.07
2022-10-18T14:32:00.392Z,15.18
2022-10-18T14:34:43.820Z,11.90
2022-10-18T14:37:41.017Z,13.57
2022-10-18T14:40:30.080Z,12.00
2022-10-18T14:43:21.021Z,11.52
2022-10-18T14:46:08.645Z,10.85
2022-10-18T14:48:42.706Z,12.68
2022-10-18T14:51:12.031Z,13.18
2022-10-18T14:53:48.477Z,11.70
2022-10-18T14:56:39.347Z,12.05
2022-10-18T14:59:18.989Z,12.45
2022-10-18T15:01:56.309Z,13.68
2022-10-18T15:04:28.468Z,14.43
2022-10-18T15:06:57.020Z,11.95
2022-10-18T15:11:56.617Z,10.95
2022-10-18T15:14:26.613Z,10.20
2022-10-18T15:17:00.091Z,13.20
2022-10-18T15:19:30.920Z,8.68
2022-10-18T15:25:07.109Z,14.88
2022-10-18T15:27:37.966Z,12.63
2022-10-18T15:30:08.000Z,14.95
2022-10-18T15:32:35.677Z,13.68
2022-10-18T15:35:09.245Z,14.77
2022-10-18T15:37:40.238Z,12.38
2022-10-18T15:40:29.061Z,10.48
2022-10-18T15:42:58.988Z,11.10
2022-10-18T15:48:25.090Z,12.45
2022-10-18T15:50:54.099Z,11.13
2022-10-18T15:53:51.868Z,11.88
2022-10-18T15:56:32.319Z,13.23
2022-10-18T15:59:01.266Z,15.98
2022-10-18T16:01:35.343Z,17.38
2022-10-18T16:04:08.007Z,13.45
2022-10-18T16:06:35.384Z,14.50
2022-10-18T16:09:02.936Z,24.02
2022-10-18T16:11:31.872Z,16.23
2022-10-18T16:14:00.667Z,13.73
2022-10-18T16:16:29.612Z,15.13
2022-10-18T16:18:57.919Z,16.45
2022-10-18T16:21:27.704Z,13.93
2022-10-18T16:23:55.485Z,12.18
2022-10-18T16:26:23.373Z,13.07
2022-10-18T16:28:53.456Z,11.30
2022-10-18T16:31:22.480Z,9.52
2022-10-18T16:33:50.997Z,11.93
2022-10-18T16:36:19.900Z,12.60
2022-10-18T16:38:48.317Z,13.60
2022-10-18T16:41:16.496Z,16.77
2022-10-18T16:43:45.527Z,12.93
2022-10-18T16:46:17.201Z,12.20
2022-10-18T16:48:45.185Z,14.15
2022-10-18T16:51:12.836Z,13.05
2022-10-18T16:53:40.310Z,10.00
2022-10-18T16:56:13.659Z,11.90
2022-10-18T16:58:41.394Z,11.10
2022-10-18T17:01:11.192Z,11.70
2022-10-18T17:03:40.382Z,12.45
2022-10-18T17:06:14.572Z,13.32
2022-10-18T17:08:41.991Z,12.20
2022-10-18T17:11:10.486Z,10.82
2022-10-18T17:13:38.504Z,14.52
2022-10-18T17:16:06.871Z,11.15
2022-10-18T17:18:34.303Z,13.05
2022-10-18T17:21:03.375Z,11.02
2022-10-18T17:23:31.221Z,12.50
2022-10-18T17:26:08.545Z,11.55
2022-10-18T17:28:46.215Z,11.63
2022-10-18T17:31:15.377Z,11.43
2022-10-18T17:33:42.906Z,12.65
2022-10-18T17:36:12.624Z,11.55
2022-10-18T17:38:40.168Z,12.20
2022-10-18T17:41:08.392Z,10.02
2022-10-18T17:43:37.501Z,11.70
2022-10-18T17:46:05.834Z,11.40
2022-10-18T17:48:33.482Z,10.02
2022-10-18T17:51:01.039Z,10.00
2022-10-18T17:53:29.871Z,12.88
2022-10-18T17:56:02.606Z,10.67
2022-10-18T17:58:30.677Z,9.73
2022-10-18T18:00:58.261Z,10.80
2022-10-18T18:03:27.239Z,11.05
2022-10-18T18:05:54.861Z,11.23
2022-10-18T18:08:22.505Z,10.57
2022-10-18T18:10:54.578Z,12.77
2022-10-18T18:13:22.320Z,11.45
2022-10-18T18:15:49.881Z,12.15
2022-10-18T18:18:17.607Z,9.32
2022-10-18T18:20:53.317Z,10.70
2022-10-18T18:23:22.539Z,9.80
2022-10-18T18:25:57.093Z,10.95
2022-10-18T18:28:24.782Z,9.93
2022-10-18T18:30:52.189Z,11.35
2022-10-18T18:33:19.823Z,10.55
2022-10-18T18:35:55.008Z,10.50
2022-10-18T18:38:22.451Z,9.27
2022-10-18T18:40:49.943Z,11.90
2022-10-18T18:43:26.107Z,11.55
2022-10-18T18:45:53.572Z,11.50
2022-10-18T18:48:21.061Z,9.82
2022-10-18T18:50:49.001Z,10.20
2022-10-18T18:53:16.553Z,14.80
2022-10-18T18:55:44.049Z,13.68
2022-10-18T18:58:12.281Z,13.20
2022-10-18T19:00:44.281Z,11.13
2022-10-18T19:03:12.599Z,12.88
2022-10-18T19:05:40.108Z,10.93
2022-10-18T19:08:07.475Z,9.35
2022-10-18T19:10:35.009Z,9.95
2022-10-18T19:13:02.406Z,12.05
2022-10-18T19:15:29.813Z,12.70
2022-10-18T19:17:58.869Z,8.70
2022-10-18T19:20:26.336Z,11.82
2022-10-18T19:22:53.830Z,10.27
2022-10-18T19:25:23.441Z,10.68
2022-10-18T19:27:53.626Z,10.50
2022-10-18T19:30:21.207Z,10.90
2022-10-18T19:32:48.626Z,9.80
2022-10-18T19:35:17.487Z,10.15
2022-10-18T19:37:44.911Z,8.90
2022-10-18T19:40:13.386Z,10.98
2022-10-18T19:42:40.777Z,10.27
2022-10-18T19:45:09.064Z,9.73
2022-10-18T19:47:36.584Z,9.50
2022-10-18T19:50:04.438Z,9.23
2022-10-18T19:52:33.314Z,10.02
2022-10-18T19:55:01.210Z,9.02
2022-10-18T19:57:28.589Z,16.35
2022-10-18T19:59:56.745Z,15.00
2022-10-18T20:02:24.408Z,13.55
2022-10-18T20:04:51.847Z,14.23
2022-10-18T20:07:19.196Z,12.50
2022-10-18T20:09:48.002Z,9.32
2022-10-18T20:12:15.375Z,8.50
2022-10-18T20:14:42.756Z,9.52
2022-10-18T20:17:10.090Z,9.80
2022-10-18T20:19:37.418Z,8.88
2022-10-18T20:22:04.766Z,9.27
2022-10-18T20:24:32.116Z,8.57
2022-10-18T20:27:00.937Z,9.55
2022-10-18T20:29:28.365Z,10.13
2022-10-18T20:31:55.743Z,7.53
2022-10-18T20:34:23.653Z,8.88
2022-10-18T20:36:50.993Z,8.13
2022-10-18T20:39:18.337Z,8.88
2022-10-18T20:41:45.667Z,7.88
2022-10-18T20:44:16.650Z,8.20
2022-10-18T20:46:44.501Z,10.05
2022-10-18T20:49:15.007Z,8.90
2022-10-18T20:51:42.823Z,7.05
2022-10-18T20:54:10.908Z,7.38
2022-10-18T20:56:39.028Z,7.90
2022-10-18T20:59:07.378Z,7.60
2022-10-18T21:01:37.049Z,6.45
2022-10-18T21:06:33.796Z,6.10
2022-10-18T21:09:03.646Z,6.10
2022-10-18T21:11:34.352Z,7.00
2022-10-18T21:14:02.645Z,7.28
2022-10-18T21:16:30.904Z,7.25
2022-10-18T21:19:03.644Z,6.70
2022-10-18T21:21:31.118Z,6.82
2022-10-18T21:24:01.195Z,6.38
2022-10-18T21:26:31.424Z,7.00
2022-10-18T21:28:59.272Z,8.02
2022-10-18T21:31:29.266Z,6.93
2022-10-18T21:33:58.705Z,7.55
2022-10-18T21:36:30.621Z,8.15
2022-10-18T21:38:58.669Z,7.65
2022-10-18T21:41:26.252Z,6.45
2022-10-18T21:43:55.149Z,7.95
2022-10-18T21:46:24.415Z,6.13
2022-10-18T21:48:52.970Z,8.43
2022-10-18T21:51:22.683Z,7.35
2022-10-18T21:56:21.318Z,14.80
2022-10-18T21:58:49.833Z,9.93
2022-10-18T22:01:19.647Z,10.45
2022-10-18T22:03:49.131Z,8.18
2022-10-18T22:06:17.475Z,9.10
2022-10-18T22:08:48.387Z,7.50
2022-10-18T22:11:18.268Z,7.85
2022-10-18T22:13:46.071Z,8.30
2022-10-18T22:16:15.113Z,7.63
2022-10-18T22:18:43.439Z,7.85
2022-10-18T22:21:13.187Z,7.68
2022-10-18T22:23:42.914Z,7.85
2022-10-18T22:26:11.905Z,9.82
2022-10-18T22:28:42.011Z,8.63
2022-10-18T22:31:14.479Z,8.20
2022-10-18T22:33:41.835Z,7.95
2022-10-18T22:36:09.361Z,10.02
2022-10-18T22:38:37.096Z,10.23
2022-10-18T22:41:05.576Z,11.63
2022-10-18T22:43:32.989Z,10.68
2022-10-18T22:46:02.685Z,9.75
2022-10-18T22:50:57.944Z,8.95
2022-10-18T22:53:25.680Z,10.25
2022-10-18T22:55:53.039Z,9.50
2022-10-18T22:58:21.036Z,9.32
2022-10-18T23:00:48.416Z,7.93
2022-10-18T23:03:18.985Z,8.15
2022-10-18T23:05:47.173Z,7.70
2022-10-18T23:08:14.609Z,8.43
2022-10-18T23:10:42.943Z,8.80
2022-10-18T23:13:10.653Z,7.28
2022-10-18T23:15:38.103Z,8.60
2022-10-18T23:18:05.902Z,7.72
2022-10-18T23:20:34.834Z,7.18
2022-10-18T23:23:02.182Z,7.82
2022-10-18T23:25:29.599Z,6.85
2022-10-18T23:27:57.662Z,8.38
2022-10-18T23:30:25.023Z,10.13
2022-10-18T23:32:52.416Z,8.65
2022-10-18T23:35:19.748Z,9.60
2022-10-18T23:37:48.585Z,8.23
2022-10-18T23:40:16.110Z,8.40
2022-10-18T23:42:43.503Z,8.30
2022-10-18T23:45:11.184Z,8.93
2022-10-18T23:47:38.559Z,11.27
2022-10-18T23:50:06.750Z,8.35
2022-10-18T23:52:34.130Z,10.52
2022-10-18T23:55:02.919Z,7.78
2022-10-18T23:57:30.428Z,7.00
2022-10-18T23:59:57.972Z,7.60
